sensor_id;sensor_type;location;lat;lon;timestamp;noise_LAeq;noise_LA_min;noise_LA_max;noise_LA01;noise_LA95
72466;Laerm;60471;52.150;4.508;2023-09-08T00:02:25;58.13;41.67;69.74;;
72466;Laerm;60471;52.150;4.508;2023-09-08T00:04:52;58.23;42.58;69.81;;
72466;Laerm;60471;52.150;4.508;2023-09-08T00:07:18;58.43;41.64;70.67;;
72466;Laerm;60471;52.150;4.508;2023-09-08T00:09:45;58.21;42.80;69.72;;
72466;Laerm;60471;52.150;4.508;2023-09-08T00:12:11;58.16;42.15;70.02;;
72466;Laerm;60471;52.150;4.508;2023-09-08T00:14:38;58.31;41.17;70.08;;
72466;Laerm;60471;52.150;4.508;2023-09-08T00:17:04;58.35;42.56;70.18;;
72466;Laerm;60471;52.150;4.508;2023-09-08T00:19:31;58.13;40.77;71.20;;
72466;Laerm;60471;52.150;4.508;2023-09-08T00:21:57;58.31;43.28;70.59;;
72466;Laerm;60471;52.150;4.508;2023-09-08T00:24:24;58.11;42.32;71.66;;
72466;Laerm;60471;52.150;4.508;2023-09-08T00:26:50;57.97;40.43;69.91;;
72466;Laerm;60471;52.150;4.508;2023-09-08T00:29:17;58.12;41.27;70.37;;
72466;Laerm;60471;52.150;4.508;2023-09-08T00:31:43;58.17;42.66;70.25;;
72466;Laerm;60471;52.150;4.508;2023-09-08T00:34:09;57.94;39.66;70.05;;
72466;Laerm;60471;52.150;4.508;2023-09-08T00:36:36;58.07;41.95;70.11;;
72466;Laerm;60471;52.150;4.508;2023-09-08T00:39:03;58.06;41.05;70.05;;
72466;Laerm;60471;52.150;4.508;2023-09-08T00:41:29;58.29;42.88;70.40;;
72466;Laerm;60471;52.150;4.508;2023-09-08T00:43:55;58.13;41.80;69.62;;
72466;Laerm;60471;52.150;4.508;2023-09-08T00:46:22;58.20;41.87;71.33;;
72466;Laerm;60471;52.150;4.508;2023-09-08T00:48:48;58.16;41.96;70.37;;
72466;Laerm;60471;52.150;4.508;2023-09-08T00:51:14;58.49;40.95;70.68;;
72466;Laerm;60471;52.150;4.508;2023-09-08T00:53:41;58.83;42.76;70.09;;
72466;Laerm;60471;52.150;4.508;2023-09-08T00:56:09;58.60;41.05;70.28;;
72466;Laerm;60471;52.150;4.508;2023-09-08T00:58:36;58.60;43.41;70.52;;
72466;Laerm;60471;52.150;4.508;2023-09-08T01:01:03;58.43;43.33;70.32;;
72466;Laerm;60471;52.150;4.508;2023-09-08T01:03:30;58.33;42.63;70.69;;
72466;Laerm;60471;52.150;4.508;2023-09-08T01:05:56;58.61;42.64;70.81;;
72466;Laerm;60471;52.150;4.508;2023-09-08T01:08:23;58.47;42.09;70.70;;
72466;Laerm;60471;52.150;4.508;2023-09-08T01:10:49;58.52;42.96;69.92;;
72466;Laerm;60471;52.150;4.508;2023-09-08T01:13:15;59.08;39.89;70.53;;
72466;Laerm;60471;52.150;4.508;2023-09-08T01:15:41;58.62;42.86;70.61;;
72466;Laerm;60471;52.150;4.508;2023-09-08T01:18:08;58.59;41.33;70.59;;
72466;Laerm;60471;52.150;4.508;2023-09-08T01:26:27;58.13;41.78;70.22;;
72466;Laerm;60471;52.150;4.508;2023-09-08T01:28:56;58.18;41.19;70.06;;
72466;Laerm;60471;52.150;4.508;2023-09-08T01:31:23;58.53;42.41;70.16;;
72466;Laerm;60471;52.150;4.508;2023-09-08T01:33:50;58.48;42.72;71.67;;
72466;Laerm;60471;52.150;4.508;2023-09-08T01:36:16;58.46;42.89;70.71;;
72466;Laerm;60471;52.150;4.508;2023-09-08T01:38:43;58.46;42.15;70.79;;
72466;Laerm;60471;52.150;4.508;2023-09-08T01:41:09;58.79;43.35;70.42;;
72466;Laerm;60471;52.150;4.508;2023-09-08T01:43:36;58.42;41.90;69.98;;
72466;Laerm;60471;52.150;4.508;2023-09-08T01:46:02;58.59;43.40;70.11;;
72466;Laerm;60471;52.150;4.508;2023-09-08T01:48:28;58.67;42.22;70.49;;
72466;Laerm;60471;52.150;4.508;2023-09-08T01:50:54;58.63;43.39;70.33;;
72466;Laerm;60471;52.150;4.508;2023-09-08T01:53:21;58.55;41.81;70.21;;
72466;Laerm;60471;52.150;4.508;2023-09-08T01:55:47;58.56;42.61;70.50;;
72466;Laerm;60471;52.150;4.508;2023-09-08T01:58:13;58.89;42.08;70.75;;
72466;Laerm;60471;52.150;4.508;2023-09-08T02:00:39;58.54;43.35;70.28;;
72466;Laerm;60471;52.150;4.508;2023-09-08T02:03:05;58.52;43.25;70.94;;
72466;Laerm;60471;52.150;4.508;2023-09-08T02:05:32;58.61;43.32;70.88;;
72466;Laerm;60471;52.150;4.508;2023-09-08T02:07:58;58.76;43.05;71.26;;
72466;Laerm;60471;52.150;4.508;2023-09-08T02:10:24;58.73;42.62;70.46;;
72466;Laerm;60471;52.150;4.508;2023-09-08T02:12:52;58.69;41.96;70.20;;
72466;Laerm;60471;52.150;4.508;2023-09-08T02:15:21;58.71;44.07;70.74;;
72466;Laerm;60471;52.150;4.508;2023-09-08T02:17:52;58.63;44.90;71.01;;
72466;Laerm;60471;52.150;4.508;2023-09-08T02:20:19;58.30;42.75;70.44;;
72466;Laerm;60471;52.150;4.508;2023-09-08T02:22:45;58.61;43.68;70.31;;
72466;Laerm;60471;52.150;4.508;2023-09-08T02:25:14;58.53;44.38;70.03;;
72466;Laerm;60471;52.150;4.508;2023-09-08T02:27:40;58.87;44.90;70.21;;
72466;Laerm;60471;52.150;4.508;2023-09-08T02:30:07;58.61;44.52;70.66;;
72466;Laerm;60471;52.150;4.508;2023-09-08T02:32:33;58.69;44.11;70.55;;
72466;Laerm;60471;52.150;4.508;2023-09-08T02:34:59;58.77;43.81;71.41;;
72466;Laerm;60471;52.150;4.508;2023-09-08T02:37:25;59.06;44.22;71.09;;
72466;Laerm;60471;52.150;4.508;2023-09-08T02:39:51;59.08;45.35;70.50;;
72466;Laerm;60471;52.150;4.508;2023-09-08T02:42:18;58.94;45.57;70.10;;
72466;Laerm;60471;52.150;4.508;2023-09-08T02:44:44;59.25;45.26;71.43;;
72466;Laerm;60471;52.150;4.508;2023-09-08T02:47:10;58.90;45.31;70.56;;
72466;Laerm;60471;52.150;4.508;2023-09-08T02:49:37;59.40;47.91;70.50;;
72466;Laerm;60471;52.150;4.508;2023-09-08T02:52:03;59.12;45.87;70.51;;
72466;Laerm;60471;52.150;4.508;2023-09-08T02:54:30;59.07;43.56;70.04;;
72466;Laerm;60471;52.150;4.508;2023-09-08T02:56:56;59.40;47.87;70.79;;
72466;Laerm;60471;52.150;4.508;2023-09-08T02:59:22;59.26;47.04;71.08;;
72466;Laerm;60471;52.150;4.508;2023-09-08T03:01:48;59.33;47.18;70.56;;
72466;Laerm;60471;52.150;4.508;2023-09-08T03:04:15;59.21;46.00;70.54;;
72466;Laerm;60471;52.150;4.508;2023-09-08T03:06:41;59.25;48.21;70.40;;
72466;Laerm;60471;52.150;4.508;2023-09-08T03:09:07;59.46;48.26;71.39;;
72466;Laerm;60471;52.150;4.508;2023-09-08T03:11:33;59.69;47.96;71.36;;
72466;Laerm;60471;52.150;4.508;2023-09-08T03:14:00;59.34;48.59;70.68;;
72466;Laerm;60471;52.150;4.508;2023-09-08T03:16:26;59.54;47.23;71.22;;
72466;Laerm;60471;52.150;4.508;2023-09-08T03:18:52;59.69;48.57;71.40;;
72466;Laerm;60471;52.150;4.508;2023-09-08T03:21:18;59.78;47.97;71.17;;
72466;Laerm;60471;52.150;4.508;2023-09-08T03:23:46;60.03;49.57;71.12;;
72466;Laerm;60471;52.150;4.508;2023-09-08T03:26:12;59.88;47.55;71.33;;
72466;Laerm;60471;52.150;4.508;2023-09-08T03:28:38;60.24;50.25;71.78;;
72466;Laerm;60471;52.150;4.508;2023-09-08T03:31:05;60.13;49.36;71.12;;
72466;Laerm;60471;52.150;4.508;2023-09-08T03:33:31;59.58;49.14;71.01;;
72466;Laerm;60471;52.150;4.508;2023-09-08T03:35:57;59.92;49.30;71.33;;
72466;Laerm;60471;52.150;4.508;2023-09-08T03:38:23;60.18;50.12;72.37;;
72466;Laerm;60471;52.150;4.508;2023-09-08T03:40:50;60.10;49.32;72.25;;
72466;Laerm;60471;52.150;4.508;2023-09-08T03:43:16;59.98;48.85;70.63;;
72466;Laerm;60471;52.150;4.508;2023-09-08T03:45:42;60.27;50.43;70.68;;
72466;Laerm;60471;52.150;4.508;2023-09-08T03:48:08;60.44;51.75;71.10;;
72466;Laerm;60471;52.150;4.508;2023-09-08T03:50:35;60.98;51.78;71.18;;
72466;Laerm;60471;52.150;4.508;2023-09-08T03:53:02;60.71;51.16;81.40;;
72466;Laerm;60471;52.150;4.508;2023-09-08T03:55:28;60.40;50.99;71.97;;
72466;Laerm;60471;52.150;4.508;2023-09-08T03:57:54;60.79;51.13;71.52;;
72466;Laerm;60471;52.150;4.508;2023-09-08T04:00:20;60.75;52.03;71.25;;
72466;Laerm;60471;52.150;4.508;2023-09-08T04:02:51;60.77;51.97;71.59;;
72466;Laerm;60471;52.150;4.508;2023-09-08T04:05:18;60.79;51.86;71.54;;
72466;Laerm;60471;52.150;4.508;2023-09-08T04:07:47;60.97;52.10;71.18;;
72466;Laerm;60471;52.150;4.508;2023-09-08T04:10:14;60.70;52.32;71.55;;
72466;Laerm;60471;52.150;4.508;2023-09-08T04:12:41;60.55;51.39;71.29;;
72466;Laerm;60471;52.150;4.508;2023-09-08T04:15:08;60.60;52.33;71.01;;
72466;Laerm;60471;52.150;4.508;2023-09-08T04:17:35;61.18;51.74;71.46;;
72466;Laerm;60471;52.150;4.508;2023-09-08T04:20:04;60.95;53.07;71.81;;
72466;Laerm;60471;52.150;4.508;2023-09-08T04:22:32;60.94;53.47;72.01;;
72466;Laerm;60471;52.150;4.508;2023-09-08T04:24:58;61.02;52.79;71.20;;
72466;Laerm;60471;52.150;4.508;2023-09-08T04:27:25;60.97;53.23;71.79;;
72466;Laerm;60471;52.150;4.508;2023-09-08T04:29:51;61.17;52.59;71.12;;
72466;Laerm;60471;52.150;4.508;2023-09-08T04:32:17;60.93;52.59;71.62;;
72466;Laerm;60471;52.150;4.508;2023-09-08T04:34:44;61.56;53.28;71.66;;
72466;Laerm;60471;52.150;4.508;2023-09-08T04:37:10;60.79;52.98;71.68;;
72466;Laerm;60471;52.150;4.508;2023-09-08T04:39:36;61.43;53.71;72.08;;
72466;Laerm;60471;52.150;4.508;2023-09-08T04:42:06;61.55;52.96;71.10;;
72466;Laerm;60471;52.150;4.508;2023-09-08T04:44:32;62.05;53.80;71.44;;
72466;Laerm;60471;52.150;4.508;2023-09-08T04:46:58;61.14;53.33;70.90;;
72466;Laerm;60471;52.150;4.508;2023-09-08T04:49:25;61.45;53.70;71.36;;
72466;Laerm;60471;52.150;4.508;2023-09-08T04:51:51;61.41;54.05;71.78;;
72466;Laerm;60471;52.150;4.508;2023-09-08T04:54:17;61.81;53.54;71.62;;
72466;Laerm;60471;52.150;4.508;2023-09-08T04:56:44;61.49;54.10;71.14;;
72466;Laerm;60471;52.150;4.508;2023-09-08T04:59:10;62.04;54.25;70.84;;
72466;Laerm;60471;52.150;4.508;2023-09-08T05:01:36;61.44;53.41;72.22;;
72466;Laerm;60471;52.150;4.508;2023-09-08T05:04:03;61.49;53.70;71.71;;
72466;Laerm;60471;52.150;4.508;2023-09-08T05:06:30;61.57;53.56;71.10;;
72466;Laerm;60471;52.150;4.508;2023-09-08T05:08:58;61.86;53.82;71.13;;
72466;Laerm;60471;52.150;4.508;2023-09-08T05:11:25;61.06;51.92;71.19;;
72466;Laerm;60471;52.150;4.508;2023-09-08T05:13:52;61.28;52.49;71.41;;
72466;Laerm;60471;52.150;4.508;2023-09-08T05:16:18;61.18;52.95;71.38;;
72466;Laerm;60471;52.150;4.508;2023-09-08T05:18:51;61.04;51.92;71.48;;
72466;Laerm;60471;52.150;4.508;2023-09-08T05:21:18;61.59;53.29;71.54;;
72466;Laerm;60471;52.150;4.508;2023-09-08T05:23:44;61.06;52.77;71.28;;
72466;Laerm;60471;52.150;4.508;2023-09-08T05:26:10;61.32;52.69;71.58;;
72466;Laerm;60471;52.150;4.508;2023-09-08T05:28:36;61.34;53.56;71.37;;
72466;Laerm;60471;52.150;4.508;2023-09-08T05:31:02;62.91;53.56;71.58;;
72466;Laerm;60471;52.150;4.508;2023-09-08T05:33:29;61.52;52.54;71.68;;
72466;Laerm;60471;52.150;4.508;2023-09-08T05:35:55;61.64;53.49;71.53;;
72466;Laerm;60471;52.150;4.508;2023-09-08T05:38:21;61.86;54.99;71.04;;
72466;Laerm;60471;52.150;4.508;2023-09-08T05:40:47;62.43;54.76;72.18;;
72466;Laerm;60471;52.150;4.508;2023-09-08T05:43:13;62.07;54.95;71.89;;
72466;Laerm;60471;52.150;4.508;2023-09-08T05:45:40;61.88;54.44;71.65;;
72466;Laerm;60471;52.150;4.508;2023-09-08T05:48:06;62.51;54.33;71.69;;
72466;Laerm;60471;52.150;4.508;2023-09-08T05:50:32;62.20;54.08;71.61;;
72466;Laerm;60471;52.150;4.508;2023-09-08T05:52:58;62.18;53.47;71.04;;
72466;Laerm;60471;52.150;4.508;2023-09-08T05:55:25;62.20;54.75;71.84;;
72466;Laerm;60471;52.150;4.508;2023-09-08T05:57:51;62.10;53.69;71.33;;
72466;Laerm;60471;52.150;4.508;2023-09-08T06:00:17;62.60;54.67;71.05;;
72466;Laerm;60471;52.150;4.508;2023-09-08T06:02:43;62.47;55.44;71.14;;
72466;Laerm;60471;52.150;4.508;2023-09-08T06:05:10;62.33;54.62;71.38;;
72466;Laerm;60471;52.150;4.508;2023-09-08T06:07:36;62.06;54.71;71.44;;
72466;Laerm;60471;52.150;4.508;2023-09-08T06:10:02;62.49;54.66;71.64;;
72466;Laerm;60471;52.150;4.508;2023-09-08T06:12:29;61.90;53.79;71.37;;
72466;Laerm;60471;52.150;4.508;2023-09-08T06:14:55;62.58;55.69;71.90;;
72466;Laerm;60471;52.150;4.508;2023-09-08T06:17:21;62.45;55.20;71.71;;
72466;Laerm;60471;52.150;4.508;2023-09-08T06:19:48;62.51;55.11;71.61;;
72466;Laerm;60471;52.150;4.508;2023-09-08T06:22:14;62.67;55.59;71.59;;
72466;Laerm;60471;52.150;4.508;2023-09-08T06:24:40;62.27;54.48;71.02;;
72466;Laerm;60471;52.150;4.508;2023-09-08T06:27:06;62.69;55.33;71.71;;
72466;Laerm;60471;52.150;4.508;2023-09-08T06:29:32;62.53;55.02;73.28;;
72466;Laerm;60471;52.150;4.508;2023-09-08T06:31:59;62.54;54.29;71.72;;
72466;Laerm;60471;52.150;4.508;2023-09-08T06:34:25;62.11;54.27;73.73;;
72466;Laerm;60471;52.150;4.508;2023-09-08T06:36:51;62.34;53.48;77.07;;
72466;Laerm;60471;52.150;4.508;2023-09-08T06:39:17;62.03;53.70;71.84;;
72466;Laerm;60471;52.150;4.508;2023-09-08T06:41:44;61.80;52.77;71.55;;
72466;Laerm;60471;52.150;4.508;2023-09-08T06:44:10;62.26;54.64;71.43;;
72466;Laerm;60471;52.150;4.508;2023-09-08T06:46:36;62.07;53.01;71.09;;
72466;Laerm;60471;52.150;4.508;2023-09-08T06:49:02;61.65;52.90;71.45;;
72466;Laerm;60471;52.150;4.508;2023-09-08T06:51:28;61.33;52.52;70.99;;
72466;Laerm;60471;52.150;4.508;2023-09-08T06:53:56;61.47;51.55;71.51;;
72466;Laerm;60471;52.150;4.508;2023-09-08T06:56:23;60.52;50.69;71.05;;
72466;Laerm;60471;52.150;4.508;2023-09-08T06:58:49;61.04;52.57;71.23;;
72466;Laerm;60471;52.150;4.508;2023-09-08T07:01:16;62.71;51.55;71.33;;
72466;Laerm;60471;52.150;4.508;2023-09-08T07:03:42;60.81;51.81;71.31;;
72466;Laerm;60471;52.150;4.508;2023-09-08T07:06:08;60.62;51.35;70.20;;
72466;Laerm;60471;52.150;4.508;2023-09-08T07:08:34;60.34;51.20;71.02;;
72466;Laerm;60471;52.150;4.508;2023-09-08T07:11:00;61.42;51.42;71.73;;
72466;Laerm;60471;52.150;4.508;2023-09-08T07:13:27;64.80;50.98;87.17;;
72466;Laerm;60471;52.150;4.508;2023-09-08T07:15:53;60.00;49.93;70.24;;
72466;Laerm;60471;52.150;4.508;2023-09-08T07:18:19;60.68;49.67;70.55;;
72466;Laerm;60471;52.150;4.508;2023-09-08T07:20:48;59.91;49.72;70.92;;
72466;Laerm;60471;52.150;4.508;2023-09-08T07:23:17;60.47;50.28;70.64;;
72466;Laerm;60471;52.150;4.508;2023-09-08T07:25:49;59.77;49.16;70.92;;
72466;Laerm;60471;52.150;4.508;2023-09-08T07:28:16;60.42;49.28;70.55;;
72466;Laerm;60471;52.150;4.508;2023-09-08T07:30:43;59.93;48.85;71.65;;
72466;Laerm;60471;52.150;4.508;2023-09-08T07:33:09;60.08;48.76;72.07;;
72466;Laerm;60471;52.150;4.508;2023-09-08T07:35:39;60.08;49.41;70.47;;
72466;Laerm;60471;52.150;4.508;2023-09-08T07:38:06;59.74;48.63;70.24;;
72466;Laerm;60471;52.150;4.508;2023-09-08T07:40:34;60.57;50.30;72.07;;
72466;Laerm;60471;52.150;4.508;2023-09-08T07:43:01;59.97;49.85;70.83;;
72466;Laerm;60471;52.150;4.508;2023-09-08T07:45:28;60.79;50.85;70.68;;
72466;Laerm;60471;52.150;4.508;2023-09-08T07:47:54;60.51;49.71;71.07;;
72466;Laerm;60471;52.150;4.508;2023-09-08T07:50:24;60.49;49.14;70.08;;
72466;Laerm;60471;52.150;4.508;2023-09-08T07:52:53;60.09;50.41;70.69;;
72466;Laerm;60471;52.150;4.508;2023-09-08T07:55:20;60.00;48.86;70.52;;
72466;Laerm;60471;52.150;4.508;2023-09-08T07:57:50;60.61;49.01;70.92;;
72466;Laerm;60471;52.150;4.508;2023-09-08T08:00:17;60.37;48.82;78.87;;
72466;Laerm;60471;52.150;4.508;2023-09-08T08:02:47;60.01;48.26;70.57;;
72466;Laerm;60471;52.150;4.508;2023-09-08T08:05:14;59.27;47.75;70.15;;
72466;Laerm;60471;52.150;4.508;2023-09-08T08:07:43;60.27;47.11;70.60;;
72466;Laerm;60471;52.150;4.508;2023-09-08T08:10:11;60.44;49.91;71.33;;
72466;Laerm;60471;52.150;4.508;2023-09-08T08:12:39;59.26;47.11;70.80;;
72466;Laerm;60471;52.150;4.508;2023-09-08T08:15:06;59.78;48.13;70.52;;
72466;Laerm;60471;52.150;4.508;2023-09-08T08:17:33;60.59;50.88;70.50;;
72466;Laerm;60471;52.150;4.508;2023-09-08T08:19:59;59.97;48.15;70.88;;
72466;Laerm;60471;52.150;4.508;2023-09-08T08:22:36;58.93;47.63;70.22;;
72466;Laerm;60471;52.150;4.508;2023-09-08T08:25:03;59.23;47.32;70.37;;
72466;Laerm;60471;52.150;4.508;2023-09-08T08:27:29;60.01;47.27;70.17;;
72466;Laerm;60471;52.150;4.508;2023-09-08T08:29:59;59.87;49.11;69.79;;
72466;Laerm;60471;52.150;4.508;2023-09-08T08:32:27;59.51;47.67;70.35;;
72466;Laerm;60471;52.150;4.508;2023-09-08T08:34:53;59.25;48.54;69.87;;
72466;Laerm;60471;52.150;4.508;2023-09-08T08:37:20;59.56;48.71;70.69;;
72466;Laerm;60471;52.150;4.508;2023-09-08T08:39:46;59.92;47.83;74.94;;
72466;Laerm;60471;52.150;4.508;2023-09-08T08:42:12;60.22;49.38;70.09;;
72466;Laerm;60471;52.150;4.508;2023-09-08T08:44:40;59.48;50.24;70.15;;
72466;Laerm;60471;52.150;4.508;2023-09-08T08:47:09;59.50;47.91;70.28;;
72466;Laerm;60471;52.150;4.508;2023-09-08T08:49:36;59.35;46.81;69.73;;
72466;Laerm;60471;52.150;4.508;2023-09-08T08:52:06;59.09;47.82;69.66;;
72466;Laerm;60471;52.150;4.508;2023-09-08T08:54:38;58.59;46.21;69.98;;
72466;Laerm;60471;52.150;4.508;2023-09-08T08:57:05;59.02;46.38;69.73;;
72466;Laerm;60471;52.150;4.508;2023-09-08T08:59:32;60.29;47.25;69.77;;
72466;Laerm;60471;52.150;4.508;2023-09-08T09:01:59;59.13;47.48;69.98;;
72466;Laerm;60471;52.150;4.508;2023-09-08T09:04:26;59.99;46.75;69.84;;
72466;Laerm;60471;52.150;4.508;2023-09-08T09:06:53;59.26;46.78;69.73;;
72466;Laerm;60471;52.150;4.508;2023-09-08T09:09:20;58.63;45.91;69.27;;
72466;Laerm;60471;52.150;4.508;2023-09-08T09:11:47;58.76;45.34;69.79;;
72466;Laerm;60471;52.150;4.508;2023-09-08T09:14:13;59.27;45.75;69.75;;
72466;Laerm;60471;52.150;4.508;2023-09-08T09:16:43;59.11;45.71;69.17;;
72466;Laerm;60471;52.150;4.508;2023-09-08T09:19:19;58.91;45.75;69.70;;
72466;Laerm;60471;52.150;4.508;2023-09-08T09:21:54;58.43;46.23;70.13;;
72466;Laerm;60471;52.150;4.508;2023-09-08T09:24:39;58.55;47.51;70.13;;
72466;Laerm;60471;52.150;4.508;2023-09-08T09:27:12;59.88;47.03;73.93;;
72466;Laerm;60471;52.150;4.508;2023-09-08T09:29:50;59.84;48.45;74.12;;
72466;Laerm;60471;52.150;4.508;2023-09-08T09:32:23;58.60;46.64;70.02;;
72466;Laerm;60471;52.150;4.508;2023-09-08T09:34:53;58.66;48.06;69.39;;
72466;Laerm;60471;52.150;4.508;2023-09-08T09:37:20;59.40;46.67;78.68;;
72466;Laerm;60471;52.150;4.508;2023-09-08T09:39:54;59.70;46.58;80.09;;
72466;Laerm;60471;52.150;4.508;2023-09-08T09:42:21;59.73;49.01;69.30;;
72466;Laerm;60471;52.150;4.508;2023-09-08T09:44:48;59.04;45.40;71.40;;
72466;Laerm;60471;52.150;4.508;2023-09-08T09:47:16;59.13;47.24;70.03;;
72466;Laerm;60471;52.150;4.508;2023-09-08T09:49:47;59.17;46.27;68.94;;
72466;Laerm;60471;52.150;4.508;2023-09-08T09:52:21;58.84;48.45;69.78;;
72466;Laerm;60471;52.150;4.508;2023-09-08T09:54:49;57.96;44.89;69.47;;
72466;Laerm;60471;52.150;4.508;2023-09-08T09:57:21;58.57;45.97;69.41;;
72466;Laerm;60471;52.150;4.508;2023-09-08T09:59:48;59.26;47.45;69.81;;
72466;Laerm;60471;52.150;4.508;2023-09-08T10:02:18;59.51;46.77;70.20;;
72466;Laerm;60471;52.150;4.508;2023-09-08T10:04:49;59.22;48.40;70.27;;
72466;Laerm;60471;52.150;4.508;2023-09-08T10:07:18;58.76;47.98;69.30;;
72466;Laerm;60471;52.150;4.508;2023-09-08T10:09:45;58.81;45.25;69.45;;
72466;Laerm;60471;52.150;4.508;2023-09-08T10:12:14;59.54;47.19;77.17;;
72466;Laerm;60471;52.150;4.508;2023-09-08T10:14:42;59.68;48.54;69.02;;
72466;Laerm;60471;52.150;4.508;2023-09-08T10:17:15;59.16;49.67;71.59;;
72466;Laerm;60471;52.150;4.508;2023-09-08T10:19:46;57.95;49.03;68.19;;
72466;Laerm;60471;52.150;4.508;2023-09-08T10:22:20;59.27;48.12;68.73;;
72466;Laerm;60471;52.150;4.508;2023-09-08T10:24:50;57.50;48.34;68.07;;
72466;Laerm;60471;52.150;4.508;2023-09-08T10:27:20;57.35;46.61;68.41;;
72466;Laerm;60471;52.150;4.508;2023-09-08T10:29:49;58.30;46.51;66.77;;
72466;Laerm;60471;52.150;4.508;2023-09-08T10:32:17;58.90;47.49;67.70;;
72466;Laerm;60471;52.150;4.508;2023-09-08T10:34:45;55.97;45.80;71.22;;
72466;Laerm;60471;52.150;4.508;2023-09-08T10:37:24;57.38;46.96;71.54;;
72466;Laerm;60471;52.150;4.508;2023-09-08T10:39:51;58.89;47.83;72.93;;
72466;Laerm;60471;52.150;4.508;2023-09-08T10:47:33;58.82;48.14;68.11;;
72466;Laerm;60471;52.150;4.508;2023-09-08T10:50:02;56.80;46.66;65.35;;
72466;Laerm;60471;52.150;4.508;2023-09-08T10:52:31;57.03;47.88;65.04;;
72466;Laerm;60471;52.150;4.508;2023-09-08T10:54:59;58.52;47.33;69.58;;
72466;Laerm;60471;52.150;4.508;2023-09-08T10:57:27;57.77;49.27;66.42;;
72466;Laerm;60471;52.150;4.508;2023-09-08T11:00:04;59.41;48.36;76.35;;
72466;Laerm;60471;52.150;4.508;2023-09-08T11:02:40;56.93;47.84;65.45;;
72466;Laerm;60471;52.150;4.508;2023-09-08T11:05:13;56.19;47.47;66.49;;
72466;Laerm;60471;52.150;4.508;2023-09-08T11:07:43;56.85;47.57;65.90;;
72466;Laerm;60471;52.150;4.508;2023-09-08T11:10:12;56.97;47.42;65.40;;
72466;Laerm;60471;52.150;4.508;2023-09-08T11:12:38;57.47;48.64;64.76;;
72466;Laerm;60471;52.150;4.508;2023-09-08T11:15:07;57.41;46.96;64.72;;
72466;Laerm;60471;52.150;4.508;2023-09-08T11:17:36;55.95;47.57;64.66;;
72466;Laerm;60471;52.150;4.508;2023-09-08T11:20:06;57.88;47.60;66.67;;
72466;Laerm;60471;52.150;4.508;2023-09-08T11:22:35;56.76;46.98;64.81;;
72466;Laerm;60471;52.150;4.508;2023-09-08T11:25:03;56.49;46.89;65.48;;
72466;Laerm;60471;52.150;4.508;2023-09-08T11:27:32;56.88;46.46;65.32;;
72466;Laerm;60471;52.150;4.508;2023-09-08T11:29:59;55.92;46.72;65.36;;
72466;Laerm;60471;52.150;4.508;2023-09-08T11:32:32;55.41;46.72;64.30;;
72466;Laerm;60471;52.150;4.508;2023-09-08T11:35:06;55.34;44.93;65.14;;
72466;Laerm;60471;52.150;4.508;2023-09-08T11:37:36;55.32;44.55;64.58;;
72466;Laerm;60471;52.150;4.508;2023-09-08T11:40:05;56.18;44.08;68.03;;
72466;Laerm;60471;52.150;4.508;2023-09-08T11:42:35;56.91;46.94;66.49;;
72466;Laerm;60471;52.150;4.508;2023-09-08T11:45:01;56.68;47.11;64.58;;
72466;Laerm;60471;52.150;4.508;2023-09-08T11:47:31;55.96;46.21;64.97;;
72466;Laerm;60471;52.150;4.508;2023-09-08T11:49:57;56.30;45.37;65.64;;
72466;Laerm;60471;52.150;4.508;2023-09-08T11:52:24;57.04;49.06;63.95;;
72466;Laerm;60471;52.150;4.508;2023-09-08T11:54:51;56.54;48.63;66.87;;
72466;Laerm;60471;52.150;4.508;2023-09-08T11:57:18;55.62;48.11;64.67;;
72466;Laerm;60471;52.150;4.508;2023-09-08T11:59:45;55.73;45.34;66.88;;
72466;Laerm;60471;52.150;4.508;2023-09-08T12:02:14;58.49;47.65;67.72;;
72466;Laerm;60471;52.150;4.508;2023-09-08T12:04:40;55.99;44.70;64.27;;
72466;Laerm;60471;52.150;4.508;2023-09-08T12:07:12;56.86;44.66;65.72;;
72466;Laerm;60471;52.150;4.508;2023-09-08T12:09:42;56.01;45.41;63.59;;
72466;Laerm;60471;52.150;4.508;2023-09-08T12:12:12;56.77;45.75;79.53;;
72466;Laerm;60471;52.150;4.508;2023-09-08T12:14:42;55.50;46.77;64.67;;
72466;Laerm;60471;52.150;4.508;2023-09-08T12:17:09;54.67;46.62;63.22;;
72466;Laerm;60471;52.150;4.508;2023-09-08T12:19:35;56.26;47.79;64.04;;
72466;Laerm;60471;52.150;4.508;2023-09-08T12:22:05;56.36;46.56;63.62;;
72466;Laerm;60471;52.150;4.508;2023-09-08T12:27:23;56.98;46.92;66.51;;
72466;Laerm;60471;52.150;4.508;2023-09-08T12:29:57;57.95;47.03;77.44;;
72466;Laerm;60471;52.150;4.508;2023-09-08T12:32:28;56.90;47.58;70.43;;
72466;Laerm;60471;52.150;4.508;2023-09-08T12:34:54;57.75;48.43;65.37;;
72466;Laerm;60471;52.150;4.508;2023-09-08T12:37:26;57.52;48.67;64.10;;
72466;Laerm;60471;52.150;4.508;2023-09-08T12:39:56;56.97;45.25;73.58;;
72466;Laerm;60471;52.150;4.508;2023-09-08T12:42:22;55.86;45.80;70.21;;
72466;Laerm;60471;52.150;4.508;2023-09-08T12:44:55;64.65;47.24;84.26;;
72466;Laerm;60471;52.150;4.508;2023-09-08T12:47:21;56.96;49.96;64.30;;
72466;Laerm;60471;52.150;4.508;2023-09-08T12:49:48;57.08;49.40;68.49;;
72466;Laerm;60471;52.150;4.508;2023-09-08T12:52:14;56.76;48.85;66.58;;
72466;Laerm;60471;52.150;4.508;2023-09-08T12:54:41;56.14;47.42;64.27;;
72466;Laerm;60471;52.150;4.508;2023-09-08T12:57:07;56.26;47.22;64.50;;
72466;Laerm;60471;52.150;4.508;2023-09-08T12:59:33;58.12;49.56;64.55;;
72466;Laerm;60471;52.150;4.508;2023-09-08T13:01:59;55.75;46.66;63.87;;
72466;Laerm;60471;52.150;4.508;2023-09-08T13:04:25;56.73;49.09;65.22;;
72466;Laerm;60471;52.150;4.508;2023-09-08T13:06:52;57.05;48.72;72.82;;
72466;Laerm;60471;52.150;4.508;2023-09-08T13:09:18;56.34;46.96;64.60;;
72466;Laerm;60471;52.150;4.508;2023-09-08T13:11:44;56.96;46.99;64.62;;
72466;Laerm;60471;52.150;4.508;2023-09-08T13:14:10;57.26;49.64;64.37;;
72466;Laerm;60471;52.150;4.508;2023-09-08T13:16:36;56.92;46.27;64.48;;
72466;Laerm;60471;52.150;4.508;2023-09-08T13:19:03;55.76;47.46;65.49;;
72466;Laerm;60471;52.150;4.508;2023-09-08T13:21:29;56.71;47.40;64.29;;
72466;Laerm;60471;52.150;4.508;2023-09-08T13:23:55;56.83;45.16;67.21;;
72466;Laerm;60471;52.150;4.508;2023-09-08T13:26:21;56.23;48.42;71.49;;
72466;Laerm;60471;52.150;4.508;2023-09-08T13:28:47;57.03;47.86;64.23;;
72466;Laerm;60471;52.150;4.508;2023-09-08T13:31:14;56.68;45.94;65.69;;
72466;Laerm;60471;52.150;4.508;2023-09-08T13:33:40;57.31;48.26;68.02;;
72466;Laerm;60471;52.150;4.508;2023-09-08T13:36:06;56.33;44.38;66.66;;
72466;Laerm;60471;52.150;4.508;2023-09-08T13:38:32;55.46;45.47;67.68;;
72466;Laerm;60471;52.150;4.508;2023-09-08T13:40:59;57.84;49.81;66.41;;
72466;Laerm;60471;52.150;4.508;2023-09-08T13:43:25;57.29;48.11;68.86;;
72466;Laerm;60471;52.150;4.508;2023-09-08T13:45:51;56.40;44.84;71.57;;
72466;Laerm;60471;52.150;4.508;2023-09-08T13:48:17;57.10;48.74;69.70;;
72466;Laerm;60471;52.150;4.508;2023-09-08T13:50:44;55.88;43.70;65.44;;
72466;Laerm;60471;52.150;4.508;2023-09-08T13:53:10;55.71;45.21;64.70;;
72466;Laerm;60471;52.150;4.508;2023-09-08T13:55:36;57.83;50.01;66.26;;
72466;Laerm;60471;52.150;4.508;2023-09-08T13:58:02;57.54;46.56;67.21;;
72466;Laerm;60471;52.150;4.508;2023-09-08T14:00:30;56.38;45.23;66.81;;